Time,TemperatureF,DewpointF,PressureIn,WindDirection,WindDirectionDegrees,WindSpeedMPH,WindSpeedGustMPH,Humidity,HourlyPrecipIn,Conditions,Clouds,dailyrainin,SoftwareType,DateUTC
2014-07-24 00:09:00,80.6,77.0,30.04,SSE,157,0.0,-999.0,89,-99.99,,,0.00,Acu-Link.com,2014-07-24 04:09:00,
2014-07-24 00:24:00,80.2,76.7,30.02,SSE,157,0.0,-999.0,89,-99.99,,,0.00,Acu-Link.com,2014-07-24 04:24:00,
2014-07-24 00:40:00,80.2,76.7,30.02,SSE,157,1.7,-999.0,89,-99.99,,,0.00,Acu-Link.com,2014-07-24 04:40:00,
2014-07-24 00:55:00,80.1,76.9,30.02,South,180,2.2,-999.0,90,-99.99,,,0.00,Acu-Link.com,2014-07-24 04:55:00,
2014-07-24 01:10:00,80.1,76.9,30.02,South,180,0.0,-999.0,90,-99.99,,,0.00,Acu-Link.com,2014-07-24 05:10:00,
2014-07-24 01:26:00,79.3,76.1,30.02,East,90,0.0,-999.0,90,-99.99,,,0.00,Acu-Link.com,2014-07-24 05:26:00,
2014-07-24 01:41:00,78.4,75.2,30.02,North,0,0.0,-999.0,90,-99.99,,,0.00,Acu-Link.com,2014-07-24 05:41:00,
2014-07-24 01:56:00,78.1,74.9,30.01,North,0,0.0,-999.0,90,-99.99,,,0.00,Acu-Link.com,2014-07-24 05:56:00,
2014-07-24 02:11:00,77.9,75.4,30.01,North,0,0.0,-999.0,92,-99.99,,,0.00,Acu-Link.com,2014-07-24 06:11:00,
2014-07-24 02:26:00,77.7,75.2,30.01,North,0,0.0,-999.0,92,-99.99,,,0.00,Acu-Link.com,2014-07-24 06:26:00,
2014-07-24 02:42:00,77.4,74.9,30.00,North,0,0.0,-999.0,92,-99.99,,,0.00,Acu-Link.com,2014-07-24 06:42:00,
2014-07-24 02:57:00,77.2,74.7,30.00,North,0,0.0,-999.0,92,-99.99,,,0.00,Acu-Link.com,2014-07-24 06:57:00,
2014-07-24 03:12:00,77.0,74.8,30.00,North,0,0.0,-999.0,93,-99.99,,,0.00,Acu-Link.com,2014-07-24 07:12:00,
2014-07-24 03:28:00,76.8,74.6,30.00,North,0,0.0,-999.0,93,-99.99,,,0.00,Acu-Link.com,2014-07-24 07:28:00,
2014-07-24 03:43:00,76.6,74.4,30.00,North,0,0.0,-999.0,93,-99.99,,,0.00,Acu-Link.com,2014-07-24 07:43:00,
2014-07-24 03:58:00,76.6,74.4,30.00,North,0,0.0,-999.0,93,-99.99,,,0.00,Acu-Link.com,2014-07-24 07:58:00,
2014-07-24 04:14:00,76.5,74.3,29.99,North,0,0.0,-999.0,93,-99.99,,,0.00,Acu-Link.com,2014-07-24 08:14:00,
2014-07-24 04:29:00,76.3,74.1,30.00,North,0,0.0,-999.0,93,-99.99,,,0.00,Acu-Link.com,2014-07-24 08:29:00,
2014-07-24 04:44:00,76.3,74.1,30.00,North,0,0.0,-999.0,93,-99.99,,,0.00,Acu-Link.com,2014-07-24 08:44:00,
2014-07-24 04:59:00,75.9,73.7,30.00,North,0,0.0,-999.0,93,-99.99,,,0.00,Acu-Link.com,2014-07-24 08:59:00,
2014-07-24 05:15:00,75.9,73.7,30.01,North,0,0.0,-999.0,93,-99.99,,,0.00,Acu-Link.com,2014-07-24 09:15:00,
2014-07-24 05:30:00,75.9,73.7,30.01,North,0,0.0,-999.0,93,-99.99,,,0.00,Acu-Link.com,2014-07-24 09:30:00,
2014-07-24 05:45:00,75.7,73.8,30.01,North,0,0.0,-999.0,94,-99.99,,,0.00,Acu-Link.com,2014-07-24 09:45:00,
2014-07-24 06:01:00,76.1,74.2,30.01,North,0,0.0,-999.0,94,-99.99,,,0.00,Acu-Link.com,2014-07-24 10:01:00,
2014-07-24 06:16:00,75.9,74.0,30.01,North,0,0.0,-999.0,94,-99.99,,,0.00,Acu-Link.com,2014-07-24 10:16:00,
2014-07-24 06:31:00,75.9,74.0,30.01,North,0,0.0,-999.0,94,-99.99,,,0.00,Acu-Link.com,2014-07-24 10:31:00,
2014-07-24 06:46:00,76.5,75.0,30.02,North,0,0.0,-999.0,95,-99.99,,,0.00,Acu-Link.com,2014-07-24 10:46:00,
2014-07-24 07:02:00,75.9,74.4,30.02,North,0,0.0,-999.0,95,-99.99,,,0.00,Acu-Link.com,2014-07-24 11:02:00,
2014-07-24 07:17:00,77.5,75.9,30.02,North,0,0.0,-999.0,95,-99.99,,,0.00,Acu-Link.com,2014-07-24 11:17:00,
2014-07-24 07:32:00,79.7,76.8,30.02,North,0,0.0,-999.0,91,-99.99,,,0.00,Acu-Link.com,2014-07-24 11:32:00,
2014-07-24 07:47:00,82.4,77.8,30.02,North,0,0.0,-999.0,86,-99.99,,,0.00,Acu-Link.com,2014-07-24 11:47:00,
2014-07-24 08:03:00,81.3,77.4,30.02,North,0,0.0,-999.0,88,-99.99,,,0.00,Acu-Link.com,2014-07-24 12:03:00,
2014-07-24 08:18:00,84.2,78.8,30.03,North,0,0.0,-999.0,84,-99.99,,,0.00,Acu-Link.com,2014-07-24 12:18:00,
2014-07-24 08:33:00,83.5,77.8,30.02,ESE,112,0.0,-999.0,83,-99.99,,,0.00,Acu-Link.com,2014-07-24 12:33:00,
2014-07-24 08:49:00,85.3,78.0,30.02,ESE,112,0.0,-999.0,79,-99.99,,,0.00,Acu-Link.com,2014-07-24 12:49:00,
2014-07-24 10:17:00,88.2,76.3,30.01,South,180,3.2,-999.0,68,-99.99,,,0.00,Acu-Link.com,2014-07-24 14:17:00,
2014-07-24 10:32:00,88.3,77.2,30.01,ESE,112,4.2,-999.0,70,-99.99,,,0.00,Acu-Link.com,2014-07-24 14:32:00,
2014-07-24 10:47:00,88.5,76.1,30.01,South,180,3.7,-999.0,67,-99.99,,,0.00,Acu-Link.com,2014-07-24 14:47:00,
2014-07-24 11:02:00,89.8,76.4,30.01,SSW,202,6.8,-999.0,65,-99.99,,,0.00,Acu-Link.com,2014-07-24 15:02:00,
2014-07-24 11:18:00,88.3,75.5,30.01,ESE,112,2.7,-999.0,66,-99.99,,,0.00,Acu-Link.com,2014-07-24 15:18:00,
2014-07-24 11:33:00,87.1,75.7,30.02,WSW,247,2.2,-999.0,69,-99.99,,,0.00,Acu-Link.com,2014-07-24 15:33:00,
2014-07-24 11:48:00,88.3,76.8,30.02,West,270,0.0,-999.0,69,-99.99,,,0.00,Acu-Link.com,2014-07-24 15:48:00,
2014-07-24 12:03:00,90.3,77.4,30.01,SSE,157,2.7,-999.0,66,-99.99,,,0.00,Acu-Link.com,2014-07-24 16:03:00,
2014-07-24 12:19:00,86.0,75.5,30.01,SSE,157,9.9,-999.0,71,-99.99,,,0.00,Acu-Link.com,2014-07-24 16:19:00,
2014-07-24 12:34:00,83.8,75.8,30.00,ESE,112,8.3,-999.0,77,-99.99,,,0.00,Acu-Link.com,2014-07-24 16:34:00,
2014-07-24 12:49:00,82.6,75.4,30.01,South,180,10.4,-999.0,79,-99.99,,,0.00,Acu-Link.com,2014-07-24 16:49:00,
2014-07-24 13:04:00,80.8,75.5,30.01,West,270,3.2,-999.0,84,-99.99,,,0.00,Acu-Link.com,2014-07-24 17:04:00,
2014-07-24 13:19:00,80.2,74.6,30.02,WNW,292,3.2,-999.0,83,-99.99,,,0.00,Acu-Link.com,2014-07-24 17:19:00,
2014-07-24 13:34:00,78.4,73.9,30.01,West,270,0.0,-999.0,86,-99.99,,,0.01,Acu-Link.com,2014-07-24 17:34:00,
2014-07-24 13:50:00,79.9,75.3,30.00,SW,225,0.0,-999.0,86,-99.99,,,0.02,Acu-Link.com,2014-07-24 17:50:00,
2014-07-24 14:05:00,82.2,75.4,30.00,South,180,1.7,-999.0,80,-99.99,,,0.03,Acu-Link.com,2014-07-24 18:05:00,
2014-07-24 14:20:00,82.6,76.5,30.00,SW,225,2.2,-999.0,82,-99.99,,,0.03,Acu-Link.com,2014-07-24 18:20:00,
2014-07-24 14:36:00,82.4,76.3,30.00,South,180,11.9,-999.0,82,-99.99,,,0.03,Acu-Link.com,2014-07-24 18:36:00,
2014-07-24 14:51:00,84.9,76.9,29.99,South,180,6.3,-999.0,77,-99.99,,,0.03,Acu-Link.com,2014-07-24 18:51:00,
2014-07-24 15:06:00,86.7,75.7,29.98,SSE,157,4.2,-999.0,70,-99.99,,,0.03,Acu-Link.com,2014-07-24 19:06:00,
2014-07-24 15:21:00,86.9,75.9,29.96,SSE,157,4.2,-999.0,70,-99.99,,,0.03,Acu-Link.com,2014-07-24 19:21:00,
2014-07-24 15:36:00,89.1,78.0,29.97,South,180,3.2,-999.0,70,-99.99,,,0.03,Acu-Link.com,2014-07-24 19:36:00,
2014-07-24 15:51:00,88.9,78.2,29.96,SSW,202,4.2,-999.0,71,-99.99,,,0.03,Acu-Link.com,2014-07-24 19:51:00,
2014-07-24 16:07:00,90.0,78.0,29.96,SSW,202,3.7,-999.0,68,-99.99,,,0.03,Acu-Link.com,2014-07-24 20:07:00,
2014-07-24 16:22:00,90.5,75.7,29.96,South,180,0.0,-999.0,62,-99.99,,,0.03,Acu-Link.com,2014-07-24 20:22:00,
2014-07-24 16:37:00,90.3,76.4,29.96,ENE,67,4.2,-999.0,64,-99.99,,,0.03,Acu-Link.com,2014-07-24 20:37:00,
2014-07-24 16:52:00,89.2,75.9,29.96,South,180,2.2,-999.0,65,-99.99,,,0.03,Acu-Link.com,2014-07-24 20:52:00,
2014-07-24 17:07:00,88.7,75.8,29.96,South,180,1.7,-999.0,66,-99.99,,,0.03,Acu-Link.com,2014-07-24 21:07:00,
2014-07-24 17:22:00,89.8,76.9,29.95,South,180,6.3,-999.0,66,-99.99,,,0.03,Acu-Link.com,2014-07-24 21:22:00,
2014-07-24 17:38:00,88.2,75.8,29.95,ESE,112,5.8,-999.0,67,-99.99,,,0.03,Acu-Link.com,2014-07-24 21:38:00,
2014-07-24 17:53:00,88.5,77.0,29.96,South,180,5.3,-999.0,69,-99.99,,,0.03,Acu-Link.com,2014-07-24 21:53:00,
2014-07-24 18:08:00,88.5,77.4,29.96,South,180,4.7,-999.0,70,-99.99,,,0.03,Acu-Link.com,2014-07-24 22:08:00,
2014-07-24 18:23:00,88.0,77.0,29.96,West,270,6.3,-999.0,70,-99.99,,,0.03,Acu-Link.com,2014-07-24 22:23:00,
2014-07-24 18:39:00,87.6,76.1,29.97,South,180,4.2,-999.0,69,-99.99,,,0.03,Acu-Link.com,2014-07-24 22:39:00,
2014-07-24 18:54:00,87.4,76.0,29.97,South,180,4.7,-999.0,69,-99.99,,,0.03,Acu-Link.com,2014-07-24 22:54:00,
2014-07-24 19:09:00,87.6,76.6,29.98,South,180,2.7,-999.0,70,-99.99,,,0.03,Acu-Link.com,2014-07-24 23:09:00,